Terminal Aerodrome Forecast
Issued by NWS

Home | Current Version | Previous Version | Text Only | Print | Product List | Glossary On
Versions: 1 2 3 4 5 6 7 8 9 10 11 12 13 14 15 16 17 18 19 20 21 22 23
683
FTUS46 KLOX 200532
TAFLGB
TAF
KLGB 200532Z 2006/2106 17005KT P6SM -SHRA BKN020 OVC030
     FM201000 10008KT 6SM -RA BR OVC015
     FM201900 14008KT 5SM -RA BR OVC010
     FM210100 VRB05KT 6SM BR OVC007=

USA.gov is the U.S. government's official web portal to all federal, state and local government web resources and services.